Погода Каксамбуна неделю

Минас-Жерайс, Бразилия

21 - 27 апреля
  • 21апреля
    Сегодня
    +11°
    +27°
    Ясно и безоблачно
    ВремяПогодаТемператураВлажностьДавлениеВетер, м/сВероятность осадков
    00:00Ясно и безоблачно+16°C87 %687 мм2.6 м/с5 %
    03:00Ясно и безоблачно+14°C94 %687 мм2.1 м/с5 %
    06:00Облачно с прояснениями+13°C97 %687 мм1.3 м/с5 %
    09:00Ясно и безоблачно+18°C79 %689 мм0.6 м/с5 %
    12:00Ясно и безоблачно+24°C56 %689 мм1.3 м/с5 %
    15:00Ясно и безоблачно+26°C48 %688 мм0.8 м/с5 %
    18:00Ясно и безоблачно+21°C68 %686 мм1.6 м/с2 %
    21:00Ясно и безоблачно+19°C81 %687 мм0.3 м/с5 %
  • 22апреля
    Понедельник
    +13°
    +27°
    Ясно и безоблачно
    ВремяПогодаТемператураВлажностьДавлениеВетер, м/сВероятность осадков
    00:00Ясно и безоблачно+15°C90 %686 мм2.7 м/с5 %
    03:00Ясно и безоблачно+13°C94 %685 мм1.6 м/с5 %
    06:00Практически безоблачно+12°C97 %685 мм1.1 м/с5 %
    09:00Ясно и безоблачно+18°C73 %688 мм0.6 м/с4 %
    12:00Ясно и безоблачно+25°C52 %688 мм2.1 м/с2 %
    15:00Ясно и безоблачно+27°C45 %686 мм1.1 м/с2 %
    18:00Ясно и безоблачно+22°C62 %686 мм0.9 м/с4 %
    21:00Ясно и безоблачно+19°C74 %686 мм0.3 м/с5 %
  • 23апреля
    Вторник
    +13°
    +28°
    Практически безоблачно
    ВремяПогодаТемператураВлажностьДавлениеВетер, м/сВероятность осадков
    00:00Ясно и безоблачно+15°C73 %685 мм1.0 м/с5 %
    03:00Ясно и безоблачно+15°C65 %685 мм1.0 м/с5 %
    06:00Ясно и безоблачно+13°C70 %685 мм1.1 м/с5 %
    09:00Ясно и безоблачно+19°C63 %688 мм0.7 м/с4 %
    12:00Небольшая облачность+25°C44 %688 мм2.3 м/с3 %
    15:00Практически безоблачно+28°C43 %687 мм1.3 м/с5 %
    18:00Ясно и безоблачно+23°C65 %686 мм1.7 м/с5 %
    21:00Ясно и безоблачно+19°C64 %686 мм0.3 м/с3 %
  • 24апреля
    Среда
    +14°
    +30°
    Ясно и безоблачно
    ВремяПогодаТемператураВлажностьДавлениеВетер, м/сВероятность осадков
    00:00Ясно и безоблачно+16°C80 %685 мм1.1 м/с3 %
    03:00Практически безоблачно+14°C81 %684 мм1.1 м/с3 %
    06:00Ясно и безоблачно+15°C69 %685 мм1.1 м/с5 %
    09:00Практически безоблачно+19°C61 %687 мм0.5 м/с5 %
    12:00Практически безоблачно+26°C47 %687 мм2.2 м/с7 %
    15:00Ясно и безоблачно+29°C43 %687 мм1.1 м/с9 %
    18:00Ясно и безоблачно+24°C63 %686 мм1.6 м/с7 %
    21:00Ясно и безоблачно+21°C70 %686 мм0.3 м/с5 %
  • 25апреля
    Четверг
    +16°
    +29°
    Небольшая облачность
    ВремяПогодаТемператураВлажностьДавлениеВетер, м/сВероятность осадков
    00:00Ясно и безоблачно+18°C75 %686 мм1.2 м/с5 %
    03:00Облачно с прояснениями+16°C83 %685 мм0.9 м/с5 %
    06:00Облачно с прояснениями+15°C87 %685 мм1.1 м/с5 %
    09:00Ясно и безоблачно+20°C67 %688 мм0.7 м/с5 %
    12:00Ясно и безоблачно+27°C50 %688 мм0.7 м/с11 %
    15:00Небольшая облачность+28°C47 %687 мм0.9 м/с41 %
    18:00Небольшая облачность и лёгкий дождик+24°C72 %687 мм3.2 м/с56 %
    21:00Ясно и безоблачно+21°C87 %688 мм0.4 м/с33 %
Мы используем cookies
Соглашаюсь